sensor_id;sensor_type;location;lat;lon;timestamp;pressure;altitude;pressure_sealevel;temperature;humidity
28927;BME280;16038;47.692;9.400;2023-04-27T00:01:10;96672.41;;;8.81;100.00
28927;BME280;16038;47.692;9.400;2023-04-27T00:03:36;96661.94;;;8.83;100.00
28927;BME280;16038;47.692;9.400;2023-04-27T00:06:01;96665.84;;;8.34;100.00
28927;BME280;16038;47.692;9.400;2023-04-27T00:08:27;96666.59;;;8.03;100.00
28927;BME280;16038;47.692;9.400;2023-04-27T00:10:53;96668.34;;;7.95;100.00
28927;BME280;16038;47.692;9.400;2023-04-27T00:13:18;96667.91;;;7.93;100.00
28927;BME280;16038;47.692;9.400;2023-04-27T00:15:43;96662.31;;;8.02;100.00
28927;BME280;16038;47.692;9.400;2023-04-27T00:18:09;96664.59;;;8.00;100.00
28927;BME280;16038;47.692;9.400;2023-04-27T00:20:35;96663.53;;;8.04;100.00
28927;BME280;16038;47.692;9.400;2023-04-27T00:23:00;96657.47;;;8.11;100.00
28927;BME280;16038;47.692;9.400;2023-04-27T00:25:25;96655.09;;;8.26;100.00
28927;BME280;16038;47.692;9.400;2023-04-27T00:27:50;96653.75;;;8.35;100.00
28927;BME280;16038;47.692;9.400;2023-04-27T00:30:16;96651.66;;;8.29;100.00
28927;BME280;16038;47.692;9.400;2023-04-27T00:32:41;96651.22;;;8.27;100.00
28927;BME280;16038;47.692;9.400;2023-04-27T00:35:06;96648.84;;;8.09;100.00
28927;BME280;16038;47.692;9.400;2023-04-27T00:37:32;96643.53;;;7.84;100.00
28927;BME280;16038;47.692;9.400;2023-04-27T00:39:57;96639.66;;;7.70;100.00
28927;BME280;16038;47.692;9.400;2023-04-27T00:42:22;96642.91;;;7.75;100.00
28927;BME280;16038;47.692;9.400;2023-04-27T00:44:49;96650.94;;;7.84;100.00
28927;BME280;16038;47.692;9.400;2023-04-27T00:47:14;96655.06;;;7.94;100.00
28927;BME280;16038;47.692;9.400;2023-04-27T00:49:41;96645.06;;;8.14;100.00
28927;BME280;16038;47.692;9.400;2023-04-27T00:52:06;96646.13;;;8.25;100.00
28927;BME280;16038;47.692;9.400;2023-04-27T00:54:31;96639.06;;;7.92;100.00
28927;BME280;16038;47.692;9.400;2023-04-27T00:56:57;96644.69;;;7.83;100.00
28927;BME280;16038;47.692;9.400;2023-04-27T00:59:23;96644.94;;;7.78;100.00
28927;BME280;16038;47.692;9.400;2023-04-27T01:01:49;96655.47;;;7.64;100.00
28927;BME280;16038;47.692;9.400;2023-04-27T01:04:15;96652.69;;;7.76;100.00
28927;BME280;16038;47.692;9.400;2023-04-27T01:06:43;96660.44;;;8.06;100.00
28927;BME280;16038;47.692;9.400;2023-04-27T01:09:09;96658.16;;;8.40;100.00
28927;BME280;16038;47.692;9.400;2023-04-27T01:11:35;96658.19;;;8.56;100.00
28927;BME280;16038;47.692;9.400;2023-04-27T01:14:04;96664.34;;;8.53;100.00
28927;BME280;16038;47.692;9.400;2023-04-27T01:16:33;96662.31;;;8.66;100.00
28927;BME280;16038;47.692;9.400;2023-04-27T01:18:59;96667.41;;;8.67;100.00
28927;BME280;16038;47.692;9.400;2023-04-27T01:21:24;96670.69;;;8.57;100.00
28927;BME280;16038;47.692;9.400;2023-04-27T01:23:50;96673.63;;;8.48;100.00
28927;BME280;16038;47.692;9.400;2023-04-27T01:26:15;96669.22;;;8.44;100.00
28927;BME280;16038;47.692;9.400;2023-04-27T01:28:41;96673.31;;;8.53;100.00
28927;BME280;16038;47.692;9.400;2023-04-27T01:31:06;96672.88;;;8.67;100.00
28927;BME280;16038;47.692;9.400;2023-04-27T01:33:32;96665.75;;;8.63;100.00
28927;BME280;16038;47.692;9.400;2023-04-27T01:35:57;96677.47;;;8.63;100.00
28927;BME280;16038;47.692;9.400;2023-04-27T01:38:22;96665.06;;;8.50;100.00
28927;BME280;16038;47.692;9.400;2023-04-27T01:40:48;96663.03;;;8.31;100.00
28927;BME280;16038;47.692;9.400;2023-04-27T01:43:13;96665.31;;;8.13;100.00
28927;BME280;16038;47.692;9.400;2023-04-27T01:45:39;96673.03;;;7.95;100.00
28927;BME280;16038;47.692;9.400;2023-04-27T01:48:04;96668.75;;;7.65;100.00
28927;BME280;16038;47.692;9.400;2023-04-27T01:50:30;96674.34;;;7.57;100.00
28927;BME280;16038;47.692;9.400;2023-04-27T01:52:55;96658.41;;;7.43;100.00
28927;BME280;16038;47.692;9.400;2023-04-27T01:55:21;96665.75;;;7.14;100.00
28927;BME280;16038;47.692;9.400;2023-04-27T01:57:46;96667.13;;;7.20;100.00
28927;BME280;16038;47.692;9.400;2023-04-27T02:00:11;96662.91;;;7.23;100.00
28927;BME280;16038;47.692;9.400;2023-04-27T02:02:37;96656.44;;;7.27;100.00
28927;BME280;16038;47.692;9.400;2023-04-27T02:05:02;96662.88;;;7.35;100.00
28927;BME280;16038;47.692;9.400;2023-04-27T02:07:28;96655.66;;;7.43;100.00
28927;BME280;16038;47.692;9.400;2023-04-27T02:09:53;96660.19;;;7.51;100.00
28927;BME280;16038;47.692;9.400;2023-04-27T02:12:18;96656.41;;;7.56;100.00
28927;BME280;16038;47.692;9.400;2023-04-27T02:14:44;96662.09;;;7.51;100.00
28927;BME280;16038;47.692;9.400;2023-04-27T02:17:10;96657.03;;;7.49;100.00
28927;BME280;16038;47.692;9.400;2023-04-27T02:19:35;96669.31;;;7.43;100.00
28927;BME280;16038;47.692;9.400;2023-04-27T02:22:00;96658.44;;;7.31;100.00
28927;BME280;16038;47.692;9.400;2023-04-27T02:24:26;96668.19;;;6.91;100.00
28927;BME280;16038;47.692;9.400;2023-04-27T02:26:51;96674.34;;;6.88;100.00
28927;BME280;16038;47.692;9.400;2023-04-27T02:29:16;96677.97;;;6.92;100.00
28927;BME280;16038;47.692;9.400;2023-04-27T02:31:42;96672.63;;;6.83;100.00
28927;BME280;16038;47.692;9.400;2023-04-27T02:34:07;96675.59;;;6.78;100.00
28927;BME280;16038;47.692;9.400;2023-04-27T02:36:33;96669.47;;;6.69;100.00
28927;BME280;16038;47.692;9.400;2023-04-27T02:38:58;96671.31;;;6.65;100.00
28927;BME280;16038;47.692;9.400;2023-04-27T02:41:23;96675.47;;;6.62;100.00
28927;BME280;16038;47.692;9.400;2023-04-27T02:43:51;96671.97;;;6.62;100.00
28927;BME280;16038;47.692;9.400;2023-04-27T02:46:17;96680.69;;;6.55;100.00
28927;BME280;16038;47.692;9.400;2023-04-27T02:48:42;96671.09;;;6.58;100.00
28927;BME280;16038;47.692;9.400;2023-04-27T02:51:07;96665.31;;;6.59;100.00
28927;BME280;16038;47.692;9.400;2023-04-27T02:53:32;96672.75;;;6.62;100.00
28927;BME280;16038;47.692;9.400;2023-04-27T02:55:58;96665.59;;;6.82;100.00
28927;BME280;16038;47.692;9.400;2023-04-27T02:58:23;96664.59;;;6.75;100.00
28927;BME280;16038;47.692;9.400;2023-04-27T03:00:55;96667.75;;;6.77;100.00
28927;BME280;16038;47.692;9.400;2023-04-27T03:03:20;96668.19;;;6.91;100.00
28927;BME280;16038;47.692;9.400;2023-04-27T03:05:46;96673.88;;;6.86;100.00
28927;BME280;16038;47.692;9.400;2023-04-27T03:08:11;96673.91;;;6.74;100.00
28927;BME280;16038;47.692;9.400;2023-04-27T03:10:36;96676.63;;;6.74;100.00
28927;BME280;16038;47.692;9.400;2023-04-27T03:13:02;96677.06;;;6.76;100.00
28927;BME280;16038;47.692;9.400;2023-04-27T03:15:27;96680.59;;;6.76;100.00
28927;BME280;16038;47.692;9.400;2023-04-27T03:17:52;96676.03;;;6.80;100.00
28927;BME280;16038;47.692;9.400;2023-04-27T03:20:17;96681.59;;;6.84;100.00
28927;BME280;16038;47.692;9.400;2023-04-27T03:22:43;96682.03;;;6.98;100.00
28927;BME280;16038;47.692;9.400;2023-04-27T03:25:10;96684.25;;;7.21;100.00
28927;BME280;16038;47.692;9.400;2023-04-27T03:27:35;96681.16;;;7.35;100.00
28927;BME280;16038;47.692;9.400;2023-04-27T03:30:00;96687.25;;;7.44;100.00
28927;BME280;16038;47.692;9.400;2023-04-27T03:32:26;96683.88;;;7.35;100.00
28927;BME280;16038;47.692;9.400;2023-04-27T03:34:51;96686.28;;;7.24;100.00
28927;BME280;16038;47.692;9.400;2023-04-27T03:37:17;96690.16;;;7.11;100.00
28927;BME280;16038;47.692;9.400;2023-04-27T03:39:42;96691.78;;;6.99;100.00
28927;BME280;16038;47.692;9.400;2023-04-27T03:42:09;96695.28;;;7.00;100.00
28927;BME280;16038;47.692;9.400;2023-04-27T03:44:34;96689.84;;;7.00;100.00
28927;BME280;16038;47.692;9.400;2023-04-27T03:47:00;96694.50;;;6.99;100.00
28927;BME280;16038;47.692;9.400;2023-04-27T03:49:26;96694.16;;;7.01;100.00
28927;BME280;16038;47.692;9.400;2023-04-27T03:51:52;96689.75;;;6.84;100.00
28927;BME280;16038;47.692;9.400;2023-04-27T03:54:17;96687.59;;;6.89;100.00
28927;BME280;16038;47.692;9.400;2023-04-27T03:56:42;96693.19;;;6.81;100.00
28927;BME280;16038;47.692;9.400;2023-04-27T03:59:08;96691.25;;;6.81;100.00
28927;BME280;16038;47.692;9.400;2023-04-27T04:01:33;96698.75;;;6.84;100.00
28927;BME280;16038;47.692;9.400;2023-04-27T04:03:59;96697.59;;;6.85;100.00
28927;BME280;16038;47.692;9.400;2023-04-27T04:06:24;96696.81;;;6.85;100.00
28927;BME280;16038;47.692;9.400;2023-04-27T04:08:50;96700.53;;;6.93;100.00
28927;BME280;16038;47.692;9.400;2023-04-27T04:11:15;96707.47;;;6.90;100.00
28927;BME280;16038;47.692;9.400;2023-04-27T04:13:40;96696.56;;;6.90;100.00
28927;BME280;16038;47.692;9.400;2023-04-27T04:16:07;96689.28;;;6.94;100.00
28927;BME280;16038;47.692;9.400;2023-04-27T04:18:32;96696.66;;;7.06;100.00
28927;BME280;16038;47.692;9.400;2023-04-27T04:20:58;96688.69;;;7.13;100.00
28927;BME280;16038;47.692;9.400;2023-04-27T04:23:23;96694.69;;;7.19;100.00
28927;BME280;16038;47.692;9.400;2023-04-27T04:25:49;96696.13;;;7.28;100.00
28927;BME280;16038;47.692;9.400;2023-04-27T04:28:14;96692.34;;;7.45;100.00
28927;BME280;16038;47.692;9.400;2023-04-27T04:30:40;96687.25;;;7.44;100.00
28927;BME280;16038;47.692;9.400;2023-04-27T04:33:05;96692.69;;;7.44;100.00
28927;BME280;16038;47.692;9.400;2023-04-27T04:35:31;96690.13;;;7.63;100.00
28927;BME280;16038;47.692;9.400;2023-04-27T04:37:59;96694.38;;;7.77;100.00
28927;BME280;16038;47.692;9.400;2023-04-27T04:40:25;96689.66;;;7.61;100.00
28927;BME280;16038;47.692;9.400;2023-04-27T04:42:50;96689.78;;;7.37;100.00
28927;BME280;16038;47.692;9.400;2023-04-27T04:45:16;96691.03;;;7.27;100.00
28927;BME280;16038;47.692;9.400;2023-04-27T04:47:42;96695.69;;;7.26;100.00
28927;BME280;16038;47.692;9.400;2023-04-27T04:50:07;96695.66;;;7.39;100.00
28927;BME280;16038;47.692;9.400;2023-04-27T04:52:34;96701.50;;;7.53;100.00
28927;BME280;16038;47.692;9.400;2023-04-27T04:55:01;96703.69;;;7.76;100.00
28927;BME280;16038;47.692;9.400;2023-04-27T04:57:26;96696.31;;;7.92;100.00
28927;BME280;16038;47.692;9.400;2023-04-27T04:59:52;96709.56;;;8.06;100.00
28927;BME280;16038;47.692;9.400;2023-04-27T05:02:17;96704.38;;;8.17;100.00
28927;BME280;16038;47.692;9.400;2023-04-27T05:04:42;96713.09;;;8.38;100.00
28927;BME280;16038;47.692;9.400;2023-04-27T05:07:08;96714.34;;;8.57;100.00
28927;BME280;16038;47.692;9.400;2023-04-27T05:09:35;96704.44;;;8.65;100.00
28927;BME280;16038;47.692;9.400;2023-04-27T05:12:00;96718.59;;;8.70;100.00
28927;BME280;16038;47.692;9.400;2023-04-27T05:14:25;96715.59;;;8.75;100.00
28927;BME280;16038;47.692;9.400;2023-04-27T05:16:51;96718.41;;;8.79;100.00
28927;BME280;16038;47.692;9.400;2023-04-27T05:19:16;96723.69;;;8.88;100.00
28927;BME280;16038;47.692;9.400;2023-04-27T05:21:45;96712.13;;;8.94;100.00
28927;BME280;16038;47.692;9.400;2023-04-27T05:24:10;96705.91;;;8.62;100.00
28927;BME280;16038;47.692;9.400;2023-04-27T05:26:37;96705.72;;;8.23;100.00
28927;BME280;16038;47.692;9.400;2023-04-27T05:29:02;96709.56;;;8.22;100.00
28927;BME280;16038;47.692;9.400;2023-04-27T05:31:28;96712.19;;;8.47;100.00
28927;BME280;16038;47.692;9.400;2023-04-27T05:33:53;96708.19;;;8.76;100.00
28927;BME280;16038;47.692;9.400;2023-04-27T05:36:18;96712.19;;;8.63;100.00
28927;BME280;16038;47.692;9.400;2023-04-27T05:38:44;96706.47;;;8.52;100.00
28927;BME280;16038;47.692;9.400;2023-04-27T05:41:09;96712.63;;;8.65;100.00
28927;BME280;16038;47.692;9.400;2023-04-27T05:43:34;96711.00;;;8.64;100.00
28927;BME280;16038;47.692;9.400;2023-04-27T05:46:02;96706.06;;;8.37;100.00
28927;BME280;16038;47.692;9.400;2023-04-27T05:48:27;96704.81;;;8.35;100.00
28927;BME280;16038;47.692;9.400;2023-04-27T05:50:59;96706.38;;;8.04;100.00
28927;BME280;16038;47.692;9.400;2023-04-27T05:53:25;96704.88;;;8.07;100.00
28927;BME280;16038;47.692;9.400;2023-04-27T05:55:50;96705.78;;;8.11;100.00
28927;BME280;16038;47.692;9.400;2023-04-27T05:58:16;96714.53;;;8.32;100.00
28927;BME280;16038;47.692;9.400;2023-04-27T06:00:41;96710.81;;;8.40;100.00
28927;BME280;16038;47.692;9.400;2023-04-27T06:03:06;96714.44;;;8.60;100.00
28927;BME280;16038;47.692;9.400;2023-04-27T06:05:31;96720.75;;;8.96;100.00
28927;BME280;16038;47.692;9.400;2023-04-27T06:07:58;96722.56;;;9.24;100.00
28927;BME280;16038;47.692;9.400;2023-04-27T06:10:23;96722.56;;;9.24;100.00
28927;BME280;16038;47.692;9.400;2023-04-27T06:12:48;96727.75;;;9.49;100.00
28927;BME280;16038;47.692;9.400;2023-04-27T06:15:14;96737.88;;;9.29;100.00
28927;BME280;16038;47.692;9.400;2023-04-27T06:17:39;96746.41;;;9.63;100.00
28927;BME280;16038;47.692;9.400;2023-04-27T06:20:05;96750.53;;;9.72;100.00
28927;BME280;16038;47.692;9.400;2023-04-27T06:22:37;96745.22;;;10.03;100.00
28927;BME280;16038;47.692;9.400;2023-04-27T06:25:03;96747.50;;;10.20;100.00
28927;BME280;16038;47.692;9.400;2023-04-27T06:27:28;96744.91;;;10.27;100.00
28927;BME280;16038;47.692;9.400;2023-04-27T06:29:54;96749.34;;;10.32;100.00
28927;BME280;16038;47.692;9.400;2023-04-27T06:32:19;96747.84;;;11.07;100.00
28927;BME280;16038;47.692;9.400;2023-04-27T06:34:45;96750.50;;;11.31;100.00
28927;BME280;16038;47.692;9.400;2023-04-27T06:37:10;96750.19;;;11.36;100.00
28927;BME280;16038;47.692;9.400;2023-04-27T06:39:36;96741.22;;;11.39;100.00
28927;BME280;16038;47.692;9.400;2023-04-27T06:42:01;96752.97;;;11.96;100.00
28927;BME280;16038;47.692;9.400;2023-04-27T06:44:28;96752.06;;;11.58;99.57
28927;BME280;16038;47.692;9.400;2023-04-27T06:46:54;96752.50;;;10.34;100.00
28927;BME280;16038;47.692;9.400;2023-04-27T06:49:19;96752.56;;;10.38;100.00
28927;BME280;16038;47.692;9.400;2023-04-27T06:51:45;96754.56;;;10.64;100.00
28927;BME280;16038;47.692;9.400;2023-04-27T06:54:10;96747.50;;;10.86;100.00
28927;BME280;16038;47.692;9.400;2023-04-27T06:56:36;96753.34;;;10.19;100.00
28927;BME280;16038;47.692;9.400;2023-04-27T06:59:01;96753.31;;;11.07;100.00
28927;BME280;16038;47.692;9.400;2023-04-27T07:01:27;96749.94;;;12.05;100.00
28927;BME280;16038;47.692;9.400;2023-04-27T07:03:52;96755.47;;;11.21;100.00
28927;BME280;16038;47.692;9.400;2023-04-27T07:06:17;96763.56;;;10.87;100.00
28927;BME280;16038;47.692;9.400;2023-04-27T07:08:43;96761.41;;;12.52;100.00
28927;BME280;16038;47.692;9.400;2023-04-27T07:11:08;96767.06;;;12.70;94.30
28927;BME280;16038;47.692;9.400;2023-04-27T07:13:33;96768.41;;;13.38;91.04
28927;BME280;16038;47.692;9.400;2023-04-27T07:15:59;96762.31;;;12.26;94.18
28927;BME280;16038;47.692;9.400;2023-04-27T07:18:25;96760.38;;;12.30;98.58
28927;BME280;16038;47.692;9.400;2023-04-27T07:20:52;96771.09;;;12.83;97.00
28927;BME280;16038;47.692;9.400;2023-04-27T07:23:17;96764.59;;;13.61;92.94
28927;BME280;16038;47.692;9.400;2023-04-27T07:25:43;96768.22;;;11.94;94.78
28927;BME280;16038;47.692;9.400;2023-04-27T07:28:09;96766.41;;;13.35;97.31
28927;BME280;16038;47.692;9.400;2023-04-27T07:30:34;96767.41;;;13.75;89.25
28927;BME280;16038;47.692;9.400;2023-04-27T07:33:01;96764.22;;;13.63;86.95
28927;BME280;16038;47.692;9.400;2023-04-27T07:35:26;96771.63;;;14.46;79.52
28927;BME280;16038;47.692;9.400;2023-04-27T07:37:51;96764.97;;;14.58;80.03
28927;BME280;16038;47.692;9.400;2023-04-27T07:40:17;96773.84;;;14.01;79.76
28927;BME280;16038;47.692;9.400;2023-04-27T07:42:43;96770.47;;;13.52;78.39
28927;BME280;16038;47.692;9.400;2023-04-27T07:45:10;96774.78;;;14.56;74.93
28927;BME280;16038;47.692;9.400;2023-04-27T07:47:36;96774.50;;;13.76;77.68
28927;BME280;16038;47.692;9.400;2023-04-27T07:50:02;96768.94;;;14.64;73.31
28927;BME280;16038;47.692;9.400;2023-04-27T07:52:28;96772.09;;;14.84;73.16
28927;BME280;16038;47.692;9.400;2023-04-27T07:54:53;96775.22;;;14.65;73.00
28927;BME280;16038;47.692;9.400;2023-04-27T07:57:18;96771.88;;;14.02;75.75
28927;BME280;16038;47.692;9.400;2023-04-27T07:59:44;96773.72;;;13.76;79.17
28927;BME280;16038;47.692;9.400;2023-04-27T08:02:09;96770.41;;;13.45;82.08
28927;BME280;16038;47.692;9.400;2023-04-27T08:04:35;96781.22;;;13.20;83.75
28927;BME280;16038;47.692;9.400;2023-04-27T08:07:00;96776.84;;;12.30;86.93
28927;BME280;16038;47.692;9.400;2023-04-27T08:09:26;96776.22;;;12.43;91.22
28927;BME280;16038;47.692;9.400;2023-04-27T08:11:51;96773.34;;;13.18;86.54
28927;BME280;16038;47.692;9.400;2023-04-27T08:14:16;96774.19;;;13.92;81.73
28927;BME280;16038;47.692;9.400;2023-04-27T08:16:42;96779.97;;;14.93;75.03
28927;BME280;16038;47.692;9.400;2023-04-27T08:19:10;96783.84;;;15.64;70.63
28927;BME280;16038;47.692;9.400;2023-04-27T08:21:36;96787.31;;;16.00;66.20
28927;BME280;16038;47.692;9.400;2023-04-27T08:24:02;96776.84;;;16.51;64.86
28927;BME280;16038;47.692;9.400;2023-04-27T08:26:27;96778.97;;;16.18;64.54
28927;BME280;16038;47.692;9.400;2023-04-27T08:28:53;96779.81;;;16.82;62.57
28927;BME280;16038;47.692;9.400;2023-04-27T08:31:20;96778.94;;;17.41;59.82
28927;BME280;16038;47.692;9.400;2023-04-27T08:33:46;96775.81;;;18.15;58.25
28927;BME280;16038;47.692;9.400;2023-04-27T08:36:11;96773.00;;;18.77;54.62
28927;BME280;16038;47.692;9.400;2023-04-27T08:38:36;96778.78;;;19.84;52.65
28927;BME280;16038;47.692;9.400;2023-04-27T08:41:01;96781.19;;;20.22;49.62
28927;BME280;16038;47.692;9.400;2023-04-27T08:43:31;96778.66;;;20.31;48.34
28927;BME280;16038;47.692;9.400;2023-04-27T08:45:56;96780.31;;;20.45;47.85
28927;BME280;16038;47.692;9.400;2023-04-27T08:48:22;96777.72;;;20.18;48.71
28927;BME280;16038;47.692;9.400;2023-04-27T08:50:48;96771.53;;;20.10;49.11
28927;BME280;16038;47.692;9.400;2023-04-27T08:53:17;96778.13;;;19.76;49.81
28927;BME280;16038;47.692;9.400;2023-04-27T08:55:43;96776.06;;;19.80;49.59
28927;BME280;16038;47.692;9.400;2023-04-27T08:58:09;96775.91;;;19.20;51.74
28927;BME280;16038;47.692;9.400;2023-04-27T09:00:38;96774.38;;;19.63;48.71
28927;BME280;16038;47.692;9.400;2023-04-27T09:03:39;96766.44;;;18.63;51.23
28927;BME280;16038;47.692;9.400;2023-04-27T09:05:59;96769.88;;;18.13;53.84
28927;BME280;16038;47.692;9.400;2023-04-27T09:08:24;96777.19;;;19.39;49.81
28927;BME280;16038;47.692;9.400;2023-04-27T09:10:50;96778.00;;;19.83;48.24
28927;BME280;16038;47.692;9.400;2023-04-27T09:13:16;96775.03;;;19.71;48.80
28927;BME280;16038;47.692;9.400;2023-04-27T09:18:10;96771.16;;;20.28;47.61
28927;BME280;16038;47.692;9.400;2023-04-27T09:20:41;96766.94;;;20.20;48.06
28927;BME280;16038;47.692;9.400;2023-04-27T09:23:06;96775.47;;;20.49;46.02
28927;BME280;16038;47.692;9.400;2023-04-27T09:25:32;96762.44;;;20.99;45.14
28927;BME280;16038;47.692;9.400;2023-04-27T09:27:58;96769.19;;;20.45;46.25
28927;BME280;16038;47.692;9.400;2023-04-27T09:30:24;96762.38;;;21.52;43.69
28927;BME280;16038;47.692;9.400;2023-04-27T09:32:53;96762.69;;;20.88;43.37
28927;BME280;16038;47.692;9.400;2023-04-27T09:35:22;96767.31;;;20.02;44.38
28927;BME280;16038;47.692;9.400;2023-04-27T09:37:48;96767.06;;;18.17;48.32
28927;BME280;16038;47.692;9.400;2023-04-27T09:40:14;96758.63;;;17.93;49.93
28927;BME280;16038;47.692;9.400;2023-04-27T09:42:39;96755.53;;;17.87;51.78
28927;BME280;16038;47.692;9.400;2023-04-27T09:45:05;96758.47;;;18.38;51.76
28927;BME280;16038;47.692;9.400;2023-04-27T09:47:31;96759.72;;;18.33;51.34
28927;BME280;16038;47.692;9.400;2023-04-27T09:49:58;96754.13;;;18.37;50.02
28927;BME280;16038;47.692;9.400;2023-04-27T09:52:23;96750.78;;;17.50;51.69
28927;BME280;16038;47.692;9.400;2023-04-27T09:54:50;96763.59;;;16.84;52.79
28927;BME280;16038;47.692;9.400;2023-04-27T09:57:37;96755.59;;;16.97;53.26
28927;BME280;16038;47.692;9.400;2023-04-27T10:00:08;96749.38;;;17.31;51.65
28927;BME280;16038;47.692;9.400;2023-04-27T10:02:39;96752.69;;;17.15;52.21
28927;BME280;16038;47.692;9.400;2023-04-27T10:07:38;96740.16;;;18.44;50.58
28927;BME280;16038;47.692;9.400;2023-04-27T10:10:05;96748.38;;;19.06;48.69
28927;BME280;16038;47.692;9.400;2023-04-27T10:12:32;96750.38;;;18.78;49.82
28927;BME280;16038;47.692;9.400;2023-04-27T10:14:59;96748.53;;;18.41;49.31
28927;BME280;16038;47.692;9.400;2023-04-27T10:19:54;96741.09;;;18.34;49.08
28927;BME280;16038;47.692;9.400;2023-04-27T10:22:20;96742.66;;;18.93;49.27
28927;BME280;16038;47.692;9.400;2023-04-27T10:24:47;96742.28;;;19.15;48.00
28927;BME280;16038;47.692;9.400;2023-04-27T10:27:14;96743.59;;;19.54;47.89
28927;BME280;16038;47.692;9.400;2023-04-27T10:29:41;96737.91;;;19.37;47.25
28927;BME280;16038;47.692;9.400;2023-04-27T10:32:07;96738.84;;;19.31;47.61
28927;BME280;16038;47.692;9.400;2023-04-27T10:34:33;96739.94;;;19.57;48.38
28927;BME280;16038;47.692;9.400;2023-04-27T10:37:07;96747.78;;;19.42;48.39
28927;BME280;16038;47.692;9.400;2023-04-27T10:39:34;96738.63;;;19.21;47.38
28927;BME280;16038;47.692;9.400;2023-04-27T10:42:01;96734.38;;;18.89;47.61
28927;BME280;16038;47.692;9.400;2023-04-27T10:44:28;96733.56;;;19.60;46.89
28927;BME280;16038;47.692;9.400;2023-04-27T10:46:55;96737.09;;;19.40;47.14
28927;BME280;16038;47.692;9.400;2023-04-27T10:49:21;96739.16;;;19.36;47.16
28927;BME280;16038;47.692;9.400;2023-04-27T10:51:47;96733.41;;;18.45;49.36
28927;BME280;16038;47.692;9.400;2023-04-27T10:54:12;96736.97;;;18.73;48.41
28927;BME280;16038;47.692;9.400;2023-04-27T10:56:39;96727.56;;;19.18;46.87
28927;BME280;16038;47.692;9.400;2023-04-27T10:59:04;96733.16;;;19.81;45.77
28927;BME280;16038;47.692;9.400;2023-04-27T11:01:30;96740.28;;;19.15;46.39
28927;BME280;16038;47.692;9.400;2023-04-27T11:03:58;96727.59;;;18.63;47.81
28927;BME280;16038;47.692;9.400;2023-04-27T11:06:24;96728.19;;;19.05;46.77
28927;BME280;16038;47.692;9.400;2023-04-27T11:08:49;96722.75;;;18.98;46.99
28927;BME280;16038;47.692;9.400;2023-04-27T11:11:15;96720.91;;;18.88;46.84
28927;BME280;16038;47.692;9.400;2023-04-27T11:13:43;96725.50;;;18.44;48.41
28927;BME280;16038;47.692;9.400;2023-04-27T11:16:09;96722.44;;;18.07;50.63
28927;BME280;16038;47.692;9.400;2023-04-27T11:18:35;96723.56;;;18.13;49.75
28927;BME280;16038;47.692;9.400;2023-04-27T11:21:05;96721.00;;;18.26;49.18
28927;BME280;16038;47.692;9.400;2023-04-27T11:23:31;96717.69;;;18.39;50.39
28927;BME280;16038;47.692;9.400;2023-04-27T11:26:22;96724.66;;;17.89;49.11
28927;BME280;16038;47.692;9.400;2023-04-27T11:29:04;96720.56;;;17.63;50.33
28927;BME280;16038;47.692;9.400;2023-04-27T11:31:43;96717.53;;;17.12;51.83
28927;BME280;16038;47.692;9.400;2023-04-27T11:34:15;96714.50;;;18.40;48.95
28927;BME280;16038;47.692;9.400;2023-04-27T11:36:40;96720.03;;;18.95;46.73
28927;BME280;16038;47.692;9.400;2023-04-27T11:39:06;96722.81;;;18.67;47.08
28927;BME280;16038;47.692;9.400;2023-04-27T11:41:32;96711.63;;;18.44;48.09
28927;BME280;16038;47.692;9.400;2023-04-27T11:44:02;96716.06;;;17.76;50.15
28927;BME280;16038;47.692;9.400;2023-04-27T11:46:28;96722.22;;;17.56;50.67
28927;BME280;16038;47.692;9.400;2023-04-27T11:48:59;96718.78;;;17.45;51.20
28927;BME280;16038;47.692;9.400;2023-04-27T11:51:25;96715.53;;;17.12;51.01
28927;BME280;16038;47.692;9.400;2023-04-27T11:53:50;96707.56;;;17.22;52.27
28927;BME280;16038;47.692;9.400;2023-04-27T11:56:16;96703.91;;;17.66;51.05
28927;BME280;16038;47.692;9.400;2023-04-27T11:58:42;96707.28;;;17.85;50.56
28927;BME280;16038;47.692;9.400;2023-04-27T12:01:08;96714.69;;;18.26;49.45
28927;BME280;16038;47.692;9.400;2023-04-27T12:03:34;96705.09;;;18.58;48.19
28927;BME280;16038;47.692;9.400;2023-04-27T12:06:00;96704.25;;;18.88;47.45
28927;BME280;16038;47.692;9.400;2023-04-27T12:08:26;96709.19;;;18.77;48.42
28927;BME280;16038;47.692;9.400;2023-04-27T12:10:51;96708.44;;;18.45;48.17
28927;BME280;16038;47.692;9.400;2023-04-27T12:13:16;96699.06;;;18.90;48.24
28927;BME280;16038;47.692;9.400;2023-04-27T12:15:42;96701.47;;;18.37;49.01
28927;BME280;16038;47.692;9.400;2023-04-27T12:18:07;96697.47;;;17.76;50.63
28927;BME280;16038;47.692;9.400;2023-04-27T12:20:33;96701.81;;;17.43;53.55
28927;BME280;16038;47.692;9.400;2023-04-27T12:22:58;96695.44;;;17.46;51.70
28927;BME280;16038;47.692;9.400;2023-04-27T12:25:24;96696.94;;;17.89;50.08
28927;BME280;16038;47.692;9.400;2023-04-27T12:27:49;96697.22;;;17.98;48.96
28927;BME280;16038;47.692;9.400;2023-04-27T12:30:15;96692.03;;;17.66;50.32
28927;BME280;16038;47.692;9.400;2023-04-27T12:32:40;96687.38;;;17.21;51.31
28927;BME280;16038;47.692;9.400;2023-04-27T12:35:06;96692.00;;;17.35;50.98
28927;BME280;16038;47.692;9.400;2023-04-27T12:37:32;96683.66;;;17.38;51.17
28927;BME280;16038;47.692;9.400;2023-04-27T12:39:57;96682.97;;;17.65;51.48
28927;BME280;16038;47.692;9.400;2023-04-27T12:42:22;96688.75;;;17.78;51.19
28927;BME280;16038;47.692;9.400;2023-04-27T12:44:48;96675.88;;;17.61;52.92
28927;BME280;16038;47.692;9.400;2023-04-27T12:47:14;96687.38;;;17.59;52.16
28927;BME280;16038;47.692;9.400;2023-04-27T12:49:39;96686.53;;;17.28;53.32
28927;BME280;16038;47.692;9.400;2023-04-27T12:52:05;96691.22;;;17.34;52.29
28927;BME280;16038;47.692;9.400;2023-04-27T12:54:30;96688.31;;;17.07;51.60
28927;BME280;16038;47.692;9.400;2023-04-27T12:56:55;96684.47;;;17.35;52.88
28927;BME280;16038;47.692;9.400;2023-04-27T12:59:21;96674.69;;;16.86;50.39
28927;BME280;16038;47.692;9.400;2023-04-27T13:01:46;96679.88;;;16.76;52.37